Medina, Washington
Current Conditions -  °F | °C
As of 10:13 PM on Saturday 22 Nov 2014 (Local Time) from KBFI Reporting Station
Broken Clouds Broken Clouds  
Wind Chill: 42°   Ceiling: 2300
Heat Index: 46°   Visibility: 10mi
Dew Point: 41°   Wind: 8mph
Humidity: 81%   Direction: 130°SE
Pressure: 30.11"   Gusts: NA
Location:  47.62°N, 122.23°W
Report Text: KBFI 230613Z 13007KT 10SM BKN023 08/05 A3011 RMK AO2
Loading
Personal Weather Stations






























Interactive Weather Map New forecast layout! Learn more

10-Day Weather Forecast

Advertisements
Track Severe Weather on mobile